Dades meteomassalio
Diari Summary for Gener 20, 2018 Units:  Metric    English   Both
« Previous Day
Next Day »
Diari Semanal Mensual Anual Personalitzat
  Maxima: Minima: Mijana:
Temperatura: -17.8 °C -15.9 °C -11.6 °C
Rosada: -17.8 °C -18.8 °C -16 °C
Humitat: Humidity % 35 % 59 %
Velocitat del vent: 0 km/h 0 km/h 40.7 km/h
Racha vent: 0 km/h - -
Vent:- - WNW
Pressio: 0 hPa 34611.7 hPa -
Pluja: 0 mm    
Historical Graphs
 
 
Tabular Data for Gener 20, 2018
Time Temperature Dew Point Pressure Wind Wind Speed Wind Gust Humidity Rainfall Rate (Hourly) solar Conditions
-17.8 °C -17.8 °C 0 hPa Calm     Humidity % 0 mm SolarRadiationWatts/m^2 W/m2 Conditions
00:02 -12.8 °C -15.6 °C 34750.5 hPa NW 41.7 km/h 41.7 km/h 71 % 0 mm 0.0 W/m2 CLR
00:07 -13.2 °C -15.8 °C 34750.5 hPa NW 29.8 km/h 29.8 km/h 72 % 0 mm 0.0 W/m2 CLR
00:12 -13.2 °C -15.7 °C 34750.5 hPa NW 29.8 km/h 29.8 km/h 73 % 0 mm 0.0 W/m2 CLR
00:17 -13.2 °C -15.7 °C 34750.5 hPa NW 38.8 km/h 38.8 km/h 73 % 0 mm 0.0 W/m2 CLR
00:22 -13.2 °C -15.7 °C 34750.5 hPa NW 44.7 km/h 44.7 km/h 73 % 0 mm 0.0 W/m2 CLR
00:27 -13.2 °C -15.7 °C 34750.5 hPa WNW 41.7 km/h 41.7 km/h 73 % 0 mm 0.0 W/m2 CLR
00:32 -13.2 °C -15.7 °C 34750.5 hPa NW 32.8 km/h 32.8 km/h 73 % 0 mm 0.0 W/m2 CLR
00:37 -13.2 °C -15.7 °C 34750.5 hPa WNW 35.7 km/h 35.7 km/h 73 % 0 mm 0.0 W/m2 CLR
00:42 -13.2 °C -15.7 °C 34750.5 hPa NNW 41.7 km/h 41.7 km/h 73 % 0 mm 0.0 W/m2 CLR
00:47 -13.2 °C -15.7 °C 34750.5 hPa WNW 36.2 km/h 36.2 km/h 73 % 0 mm 0.0 W/m2 CLR
00:52 -13.2 °C -15.7 °C 34750.5 hPa WNW 38.8 km/h 38.8 km/h 73 % 0 mm 0.0 W/m2 CLR
00:57 -13.2 °C -15.6 °C 34750.5 hPa WSW 17.9 km/h 17.9 km/h 74 % 0 mm 0.0 W/m2 CLR
01:02 -13.2 °C -15.6 °C 34750.5 hPa NW 32.8 km/h 32.8 km/h 74 % 0 mm 0.0 W/m2 CLR
01:07 -13.4 °C -15.9 °C 34750.5 hPa WNW 29.8 km/h 29.8 km/h 74 % 0 mm 0.0 W/m2 CLR
01:12 -13.4 °C -16 °C 34750.5 hPa North 41.7 km/h 41.7 km/h 73 % 0 mm 0.0 W/m2 CLR
01:17 -13.4 °C -16 °C 34750.5 hPa NNW 26.9 km/h 26.9 km/h 73 % 0 mm 0.0 W/m2 CLR
01:22 -13.2 °C -15.7 °C 34740.4 hPa NNW 56.6 km/h 56.6 km/h 73 % 0 mm 0.0 W/m2 CLR
01:27 -13.2 °C -15.8 °C 34740.4 hPa North 36.2 km/h 36.2 km/h 72 % 0 mm 0.0 W/m2 CLR
01:32 -13.2 °C -15.8 °C 34740.4 hPa NW 38.8 km/h 38.8 km/h 72 % 0 mm 0.0 W/m2 CLR
01:37 -13.2 °C -15.8 °C 34740.4 hPa NW 44.7 km/h 44.7 km/h 72 % 0 mm 0.0 W/m2 CLR
01:42 -13.2 °C -15.8 °C 34740.4 hPa WNW 50.7 km/h 50.7 km/h 72 % 0 mm 0.0 W/m2 CLR
01:47 -13.2 °C -15.8 °C 34740.4 hPa NW 38.8 km/h 38.8 km/h 72 % 0 mm 0.0 W/m2 CLR
01:52 -12.8 °C -15.5 °C 34740.4 hPa NNW 62.6 km/h 62.6 km/h 72 % 0 mm 0.0 W/m2 CLR
01:57 -12.8 °C -15.5 °C 34740.4 hPa NW 41.7 km/h 41.7 km/h 72 % 0 mm 0.0 W/m2 CLR
02:02 -13.2 °C -15.9 °C 34750.5 hPa WNW 32.8 km/h 32.8 km/h 71 % 0 mm 0.0 W/m2 CLR
02:07 -13.2 °C -15.9 °C 34740.4 hPa WNW 29.8 km/h 29.8 km/h 71 % 0 mm 0.0 W/m2 CLR
02:12 -13.2 °C -15.9 °C 34740.4 hPa NW 26.9 km/h 26.9 km/h 71 % 0 mm 0.0 W/m2 CLR
02:17 -13.4 °C -16.1 °C 34750.5 hPa NW 41.4 km/h 41.4 km/h 72 % 0 mm 0.0 W/m2 CLR
02:22 -13.2 °C -15.8 °C 34750.5 hPa WNW 35.7 km/h 35.7 km/h 72 % 0 mm 0.0 W/m2 CLR
02:27 -13.2 °C -15.8 °C 34740.4 hPa NW 26.9 km/h 26.9 km/h 72 % 0 mm 0.0 W/m2 CLR
02:32 -13.2 °C -15.7 °C 34740.4 hPa NW 38.8 km/h 38.8 km/h 73 % 0 mm 0.0 W/m2 CLR
02:37 -13.2 °C -15.7 °C 34740.4 hPa NNW 41.7 km/h 41.7 km/h 73 % 0 mm 0.0 W/m2 CLR
02:42 -13.4 °C -16 °C 34740.4 hPa NW 41.7 km/h 41.7 km/h 73 % 0 mm 0.0 W/m2 CLR
02:47 -13.4 °C -15.9 °C 34740.4 hPa NW 36.2 km/h 36.2 km/h 74 % 0 mm 0.0 W/m2 CLR
02:52 -13.4 °C -15.9 °C 34726.8 hPa NW 35.7 km/h 35.7 km/h 74 % 0 mm 0.0 W/m2 CLR
02:57 -13.4 °C -15.9 °C 34740.4 hPa NW 41.7 km/h 41.7 km/h 74 % 0 mm 0.0 W/m2 CLR
03:02 -13.4 °C -15.9 °C 34740.4 hPa NNW 53.6 km/h 53.6 km/h 74 % 0 mm 0.0 W/m2 CLR
03:07 -13.4 °C -15.9 °C 34726.8 hPa NNW 44.7 km/h 44.7 km/h 74 % 0 mm 0.0 W/m2 CLR
03:12 -13.4 °C -15.9 °C 34740.4 hPa NW 44.7 km/h 44.7 km/h 74 % 0 mm 0.0 W/m2 CLR
03:17 -13.4 °C -15.9 °C 34740.4 hPa NW 51.8 km/h 51.8 km/h 74 % 0 mm 0.0 W/m2 CLR
03:22 -13.4 °C -15.9 °C 34740.4 hPa NW 56.6 km/h 56.6 km/h 74 % 0 mm 0.0 W/m2 CLR
03:27 -13.4 °C -16 °C 34740.4 hPa NW 50.7 km/h 50.7 km/h 73 % 0 mm 0.0 W/m2 CLR
03:32 -13.4 °C -16 °C 34740.4 hPa NW 46.7 km/h 46.7 km/h 73 % 0 mm 0.0 W/m2 CLR
03:37 -13.4 °C -16 °C 34750.5 hPa NW 32.8 km/h 32.8 km/h 73 % 0 mm 0.0 W/m2 CLR
03:42 -13.4 °C -16 °C 34750.5 hPa NW 33.6 km/h 33.6 km/h 73 % 0 mm 0.0 W/m2 CLR
03:47 -13.4 °C -16 °C 34740.4 hPa NW 50.7 km/h 50.7 km/h 73 % 0 mm 0.0 W/m2 CLR
03:52 -13.4 °C -16 °C 34740.4 hPa NW 29.8 km/h 29.8 km/h 73 % 0 mm 0.0 W/m2 CLR
03:57 -13.4 °C -16 °C 34740.4 hPa NW 35.7 km/h 35.7 km/h 73 % 0 mm 0.0 W/m2 CLR
04:02 -13.4 °C -16 °C 34740.4 hPa NW 38.8 km/h 38.8 km/h 73 % 0 mm 0.0 W/m2 CLR
04:07 -13.4 °C -16 °C 34740.4 hPa NW 41.7 km/h 41.7 km/h 73 % 0 mm 0.0 W/m2 CLR
04:12 -13.4 °C -16 °C 34740.4 hPa NNW 32.8 km/h 32.8 km/h 73 % 0 mm 0.0 W/m2 CLR
04:17 -13.4 °C -16 °C 34740.4 hPa NNW 29.8 km/h 29.8 km/h 73 % 0 mm 0.0 W/m2 CLR
04:22 -13.4 °C -16 °C 34740.4 hPa WNW 29.8 km/h 29.8 km/h 73 % 0 mm 0.0 W/m2 CLR
04:27 -13.4 °C -16 °C 34740.4 hPa WNW 31.1 km/h 31.1 km/h 73 % 0 mm 0.0 W/m2 CLR
04:32 -13.4 °C -16.1 °C 34740.4 hPa WNW 38.8 km/h 38.8 km/h 72 % 0 mm 0.0 W/m2 CLR
04:37 -13.4 °C -16.1 °C 34740.4 hPa WNW 35.7 km/h 35.7 km/h 72 % 0 mm 0.0 W/m2 CLR
04:42 -13.4 °C -16.1 °C 34740.4 hPa WNW 29.8 km/h 29.8 km/h 72 % 0 mm 0.0 W/m2 CLR
04:47 -13.4 °C -16.1 °C 34726.8 hPa WNW 26.9 km/h 26.9 km/h 72 % 0 mm 0.0 W/m2 CLR
04:52 -13.8 °C -16.3 °C 34726.8 hPa WNW 41.7 km/h 41.7 km/h 73 % 0 mm 0.0 W/m2 CLR
04:57 -13.8 °C -16.3 °C 34726.8 hPa WNW 44.7 km/h 44.7 km/h 73 % 0 mm 0.0 W/m2 CLR
05:02 -13.8 °C -16.3 °C 34726.8 hPa WNW 49.2 km/h 49.2 km/h 73 % 0 mm 0.0 W/m2 CLR
05:07 -13.8 °C -16.4 °C 34726.8 hPa NW 28.5 km/h 28.5 km/h 72 % 0 mm 0.0 W/m2 CLR
05:12 -13.8 °C -16.3 °C 34726.8 hPa NW 41.7 km/h 41.7 km/h 73 % 0 mm 0.0 W/m2 CLR
05:17 -13.8 °C -16.3 °C 34726.8 hPa NW 36.2 km/h 36.2 km/h 73 % 0 mm 0.0 W/m2 CLR
05:22 -13.4 °C -16 °C 34726.8 hPa NW 41.7 km/h 41.7 km/h 73 % 0 mm 0.0 W/m2 CLR
05:27 -13.4 °C -16 °C 34740.4 hPa NW 50.7 km/h 50.7 km/h 73 % 0 mm 0.0 W/m2 CLR
05:32 -13.4 °C -16.1 °C 34740.4 hPa NW 44.7 km/h 44.7 km/h 72 % 0 mm 0.0 W/m2 CLR
05:37 -13.4 °C -16.1 °C 34740.4 hPa WNW 35.7 km/h 35.7 km/h 72 % 0 mm 0.0 W/m2 CLR
05:42 -13.4 °C -16.1 °C 34740.4 hPa NW 26.9 km/h 26.9 km/h 72 % 0 mm 0.0 W/m2 CLR
05:47 -13.4 °C -16.1 °C 34740.4 hPa NW 41.7 km/h 41.7 km/h 72 % 0 mm 0.0 W/m2 CLR
05:52 -13.4 °C -16.1 °C 34740.4 hPa NW 36.2 km/h 36.2 km/h 72 % 0 mm 0.0 W/m2 CLR
05:57 -13.4 °C -16.1 °C 34740.4 hPa NNW 31.1 km/h 31.1 km/h 72 % 0 mm 0.0 W/m2 CLR
06:02 -13.4 °C -16.1 °C 34740.4 hPa NW 32.8 km/h 32.8 km/h 72 % 0 mm 0.0 W/m2 CLR
06:07 -13.4 °C -16.2 °C 34726.8 hPa WNW 32.8 km/h 32.8 km/h 71 % 0 mm 0.0 W/m2 CLR
06:12 -13.8 °C -16.5 °C 34740.4 hPa WNW 29.8 km/h 29.8 km/h 71 % 0 mm 0.0 W/m2 CLR
06:18 -13.8 °C -16.4 °C 34740.4 hPa West 31.1 km/h 31.1 km/h 72 % 0 mm 0.0 W/m2 CLR
06:23 -13.8 °C -16.4 °C 34740.4 hPa WNW 29.8 km/h 29.8 km/h 72 % 0 mm 0.0 W/m2 CLR
06:28 -13.8 °C -16.4 °C 34740.4 hPa WNW 29.8 km/h 29.8 km/h 72 % 0 mm 0.0 W/m2 CLR
06:33 -13.8 °C -16.5 °C 34740.4 hPa WNW 23.8 km/h 23.8 km/h 71 % 0 mm 0.0 W/m2 CLR
06:38 -13.8 °C -16.5 °C 34740.4 hPa West 3.1 km/h 3.7 km/h 71 % 0 mm 0.0 W/m2 CLR
06:43 -13.8 °C -16.4 °C 34740.4 hPa West 23.8 km/h 23.8 km/h 72 % 0 mm 0.0 W/m2 CLR
06:48 -13.8 °C -16.4 °C 34740.4 hPa NW 29.8 km/h 29.8 km/h 72 % 0 mm 0.0 W/m2 CLR
06:53 -14.1 °C -16.7 °C 34740.4 hPa WNW 32.8 km/h 32.8 km/h 72 % 0 mm 0.0 W/m2 CLR
06:58 -14.1 °C -16.9 °C 34750.5 hPa WNW 29.8 km/h 29.8 km/h 70 % 0 mm 0.0 W/m2 CLR
07:03 -14.1 °C -16.9 °C 34740.4 hPa NW 33.6 km/h 33.6 km/h 70 % 0 mm 0.0 W/m2 CLR
07:08 -14.1 °C -16.9 °C 34740.4 hPa NW 29.8 km/h 29.8 km/h 70 % 0 mm 0.0 W/m2 CLR
07:13 -14.1 °C -17 °C 34740.4 hPa NW 29.8 km/h 29.8 km/h 69 % 0 mm 0.0 W/m2 CLR
07:18 -14.1 °C -17 °C 34740.4 hPa WNW 18.2 km/h 18.2 km/h 69 % 0 mm 0.0 W/m2 CLR
07:23 -14.1 °C -17 °C 34740.4 hPa WNW 17.9 km/h 17.9 km/h 69 % 0 mm 0.0 W/m2 CLR
07:28 -14.1 °C -16.9 °C 34740.4 hPa West 17.9 km/h 17.9 km/h 70 % 0 mm 0.0 W/m2 CLR
07:33 -14.1 °C -16.8 °C 34740.4 hPa West 15.6 km/h 15.6 km/h 71 % 0 mm 0.0 W/m2 CLR
07:38 -14.1 °C -16.7 °C 34740.4 hPa WNW 18.2 km/h 18.2 km/h 72 % 0 mm 0.0 W/m2 CLR
07:43 -14.1 °C -16.6 °C 34740.4 hPa WNW 17.9 km/h 17.9 km/h 73 % 0 mm 0.0 W/m2 CLR
07:48 -14.4 °C -16.8 °C 34750.5 hPa WNW 20.9 km/h 20.9 km/h 74 % 0 mm 0.0 W/m2 CLR
07:53 -14.4 °C -16.8 °C 34750.5 hPa WNW 20.8 km/h 20.8 km/h 74 % 0 mm 0.0 W/m2 CLR
07:58 -14.7 °C -17.2 °C 34750.5 hPa WNW 17.9 km/h 17.9 km/h 73 % 0 mm 0.0 W/m2 CLR
08:03 -15 °C -17.6 °C 34750.5 hPa WNW 17.9 km/h 17.9 km/h 72 % 0 mm 0.0 W/m2 CLR
08:08 -15.3 °C -17.9 °C 34750.5 hPa WNW 18.2 km/h 18.2 km/h 71 % 0 mm 0.0 W/m2 CLR
08:13 -15.3 °C -17.9 °C 34750.5 hPa WNW 17.9 km/h 17.9 km/h 71 % 0 mm 0.0 W/m2 OVC
08:18 -15.6 °C -18.3 °C 34760.7 hPa Calm     71 % 0 mm 5.0 W/m2 OVC
08:23 -15.9 °C -18.6 °C 34750.5 hPa Calm     71 % 0 mm 9.0 W/m2 BKN
08:28 -15.9 °C -18.4 °C 34750.5 hPa Calm     72 % 0 mm 12.0 W/m2 BKN
08:33 -15.9 °C -18.4 °C 34750.5 hPa Calm     73 % 0 mm 18.0 W/m2 BKN
08:38 -15.9 °C -18.3 °C 34760.7 hPa Calm     74 % 0 mm 21.0 W/m2 BKN
08:43 -15.9 °C -18.3 °C 34760.7 hPa WNW 18.2 km/h 18.2 km/h 74 % 0 mm 23.0 W/m2 BKN
08:48 -15.6 °C -18.2 °C 34760.7 hPa WNW 6 km/h 6 km/h 72 % 0 mm 25.0 W/m2 BKN
08:53 -15.9 °C -18.6 °C 34760.7 hPa NW 23.8 km/h 23.8 km/h 71 % 0 mm 26.0 W/m2 BKN
08:58 -15.9 °C -18.8 °C 34750.5 hPa NW 23.8 km/h 23.8 km/h 69 % 0 mm 33.0 W/m2 BKN
09:03 -15.9 °C -18.8 °C 34760.7 hPa NW 23.8 km/h 23.8 km/h 69 % 0 mm 42.0 W/m2 BKN
09:08 -15.6 °C -18.5 °C 34750.5 hPa NW 26.9 km/h 26.9 km/h 69 % 0 mm 51.0 W/m2 SCT
09:13 -15.3 °C -18.3 °C 34750.5 hPa NW 32.8 km/h 32.8 km/h 68 % 0 mm 79.0 W/m2 FEW
09:18 -14.7 °C -17.8 °C 34750.5 hPa NW 33.6 km/h 33.6 km/h 67 % 0 mm 70.0 W/m2 FEW
09:23 -14.1 °C -17.3 °C 34750.5 hPa NW 38.8 km/h 38.8 km/h 67 % 0 mm 67.0 W/m2 FEW
09:28 -13.8 °C -17.1 °C 34750.5 hPa NW 29.8 km/h 29.8 km/h 66 % 0 mm 60.0 W/m2 FEW
09:33 -13.4 °C -16.9 °C 34750.5 hPa NNW 29.8 km/h 29.8 km/h 65 % 0 mm 90.0 W/m2 FEW
09:38 -13.4 °C -16.9 °C 34740.4 hPa NW 29.8 km/h 29.8 km/h 65 % 0 mm 98.0 W/m2 FEW
09:43 -13.2 °C -16.6 °C 34740.4 hPa NW 26.9 km/h 26.9 km/h 65 % 0 mm 141.0 W/m2 CLR
09:48 -13.2 °C -16.7 °C 34740.4 hPa NW 29.8 km/h 29.8 km/h 64 % 0 mm 167.0 W/m2 CLR
09:53 -12.8 °C -16.4 °C 34740.4 hPa NNW 32.8 km/h 32.8 km/h 64 % 0 mm 207.0 W/m2 CLR
09:58 -12.6 °C -16.2 °C 34750.5 hPa NW 29.8 km/h 29.8 km/h 64 % 0 mm 197.0 W/m2 CLR
10:03 -12.6 °C -16.3 °C 34750.5 hPa NNW 47.6 km/h 47.6 km/h 63 % 0 mm 283.0 W/m2 CLR
10:08 -12.2 °C -16.1 °C 34750.5 hPa NNW 38.8 km/h 38.8 km/h 62 % 0 mm 260.0 W/m2 CLR
10:13 -12.2 °C -16.2 °C 34750.5 hPa NNW 38.8 km/h 38.8 km/h 61 % 0 mm 253.0 W/m2 CLR
10:18 -11.9 °C -16.1 °C 34740.4 hPa NW 44.7 km/h 44.7 km/h 60 % 0 mm 239.0 W/m2 CLR
10:23 -11.9 °C -16.1 °C 34740.4 hPa NW 38.8 km/h 38.8 km/h 60 % 0 mm 315.0 W/m2 CLR
10:28 -11.6 °C -15.8 °C 34740.4 hPa NNW 38.8 km/h 38.8 km/h 60 % 0 mm 322.0 W/m2 CLR
10:33 -11.6 °C -15.9 °C 34740.4 hPa NNW 50.7 km/h 50.7 km/h 59 % 0 mm 339.0 W/m2 CLR
10:38 -11.6 °C -16 °C 34740.4 hPa NNW 38.8 km/h 38.8 km/h 58 % 0 mm 299.0 W/m2 CLR
10:43 -11.3 °C -15.9 °C 34740.4 hPa NNW 38.8 km/h 38.8 km/h 57 % 0 mm 288.0 W/m2 CLR
10:48 -11.3 °C -16 °C 34740.4 hPa NW 44.7 km/h 44.7 km/h 56 % 0 mm 295.0 W/m2 CLR
10:53 -11.3 °C -15.9 °C 34750.5 hPa NNW 50.7 km/h 50.7 km/h 57 % 0 mm 338.0 W/m2 CLR
10:58 -11 °C -15.4 °C 34740.4 hPa NW 41.4 km/h 41.4 km/h 58 % 0 mm 404.0 W/m2 CLR
11:03 -11 °C -15.7 °C 34740.4 hPa NW 38.8 km/h 38.8 km/h 56 % 0 mm 334.0 W/m2 CLR
11:08 -11 °C -15.7 °C 34740.4 hPa NNW 38.8 km/h 38.8 km/h 56 % 0 mm 345.0 W/m2 CLR
11:13 -10.7 °C -15.4 °C 34740.4 hPa NW 44.7 km/h 44.7 km/h 56 % 0 mm 387.0 W/m2 CLR
11:18 -11 °C -15.9 °C 34726.8 hPa NNW 47.6 km/h 47.6 km/h 55 % 0 mm 297.0 W/m2 CLR
11:23 -11 °C -15.9 °C 34726.8 hPa NW 36.2 km/h 36.2 km/h 55 % 0 mm 390.0 W/m2 CLR
11:28 -10.7 °C -15.4 °C 34726.8 hPa NNW 38.8 km/h 38.8 km/h 56 % 0 mm 383.0 W/m2 CLR
11:33 -10.7 °C -15.7 °C 34726.8 hPa NW 47.6 km/h 47.6 km/h 54 % 0 mm 446.0 W/m2 CLR
11:38 -10.4 °C -15.4 °C 34726.8 hPa NNW 41.7 km/h 41.7 km/h 54 % 0 mm 403.0 W/m2 CLR
11:43 -10.4 °C -15.3 °C 34726.8 hPa NNW 23.8 km/h 23.8 km/h 55 % 0 mm 376.0 W/m2 CLR
11:48 -10.4 °C -15.4 °C 34726.8 hPa North 29.8 km/h 29.8 km/h 54 % 0 mm 297.0 W/m2 CLR
11:54 -10.7 °C -15.7 °C 34726.8 hPa North 41.7 km/h 41.7 km/h 54 % 0 mm 362.0 W/m2 CLR
11:59 -10.4 °C -15.4 °C 34726.8 hPa NNW 29.8 km/h 29.8 km/h 54 % 0 mm 364.0 W/m2 CLR
12:04 -10.4 °C -15.3 °C 34726.8 hPa North 32.8 km/h 32.8 km/h 55 % 0 mm 388.0 W/m2 CLR
12:09 -10.4 °C -15.3 °C 34716.7 hPa NNW 35.7 km/h 35.7 km/h 55 % 0 mm 408.0 W/m2 CLR
12:14 -10.4 °C -15.3 °C 34716.7 hPa NNW 29.8 km/h 29.8 km/h 55 % 0 mm 436.0 W/m2 CLR
12:19 -10.7 °C -15.6 °C 34716.7 hPa North 29.8 km/h 29.8 km/h 55 % 0 mm 473.0 W/m2 CLR
12:24 -10.4 °C -15.3 °C 34716.7 hPa NNE 26.9 km/h 26.9 km/h 55 % 0 mm 471.0 W/m2 CLR
12:29 -10.4 °C -15.3 °C 34703.1 hPa NNE 26.9 km/h 26.9 km/h 55 % 0 mm 396.0 W/m2 CLR
12:34 -10.1 °C -15 °C 34703.1 hPa NNE 31.1 km/h 31.1 km/h 55 % 0 mm 401.0 W/m2 CLR
12:39 -10.1 °C -15.2 °C 34703.1 hPa North 31.1 km/h 31.1 km/h 54 % 0 mm 443.0 W/m2 CLR
12:44 -10.1 °C -15.3 °C 34693 hPa North 41.7 km/h 41.7 km/h 53 % 0 mm 429.0 W/m2 CLR
12:49 -10.1 °C -15.4 °C 34693 hPa North 44.7 km/h 44.7 km/h 52 % 0 mm 459.0 W/m2 CLR
12:54 -10.1 °C -15.4 °C 34693 hPa North 44.7 km/h 44.7 km/h 52 % 0 mm 381.0 W/m2 CLR
12:59 -9.8 °C -15.3 °C 34693 hPa NNE 41.7 km/h 41.7 km/h 51 % 0 mm 452.0 W/m2 CLR
13:04 -9.8 °C -15.4 °C 34682.8 hPa North 32.8 km/h 32.8 km/h 50 % 0 mm 378.0 W/m2 CLR
13:09 -9.8 °C -15.4 °C 34682.8 hPa NNE 33.6 km/h 33.6 km/h 50 % 0 mm 418.0 W/m2 CLR
13:14 -9.4 °C -15.5 °C 34682.8 hPa NNE 32.8 km/h 32.8 km/h 48 % 0 mm 469.0 W/m2 CLR
13:19 -9.4 °C -15.5 °C 34682.8 hPa North 38.8 km/h 38.8 km/h 48 % 0 mm 462.0 W/m2 CLR
13:24 -9.4 °C -15.5 °C 34669.3 hPa NNW 44.7 km/h 44.7 km/h 48 % 0 mm 468.0 W/m2 CLR
13:29 -9.4 °C -15.7 °C 34682.8 hPa North 50.7 km/h 50.7 km/h 47 % 0 mm 475.0 W/m2 CLR
13:34 -9.1 °C -15.2 °C 34669.3 hPa NNW 36.2 km/h 36.2 km/h 48 % 0 mm 471.0 W/m2 CLR
13:39 -9.1 °C -15.4 °C 34669.3 hPa NNW 50.7 km/h 50.7 km/h 47 % 0 mm 478.0 W/m2 CLR
13:44 -9.1 °C -15.4 °C 34659.1 hPa North 41.7 km/h 41.7 km/h 47 % 0 mm 471.0 W/m2 CLR
13:49 -8.8 °C -15.3 °C 34659.1 hPa North 47.6 km/h 47.6 km/h 46 % 0 mm 468.0 W/m2 CLR
13:54 -9.1 °C -15.6 °C 34659.1 hPa NNE 38.8 km/h 38.8 km/h 46 % 0 mm 466.0 W/m2 CLR
13:59 -8.8 °C -15.3 °C 34645.6 hPa NNW 32.8 km/h 32.8 km/h 46 % 0 mm 461.0 W/m2 CLR
14:04 -8.8 °C -15.4 °C 34635.4 hPa North 35.7 km/h 35.7 km/h 45 % 0 mm 457.0 W/m2 CLR
14:09 -8.8 °C -15.4 °C 34635.4 hPa NNW 32.8 km/h 32.8 km/h 45 % 0 mm 455.0 W/m2 CLR
14:14 -8.5 °C -15.4 °C 34635.4 hPa NNW 50.7 km/h 50.7 km/h 44 % 0 mm 450.0 W/m2 CLR
14:19 -8.5 °C -15.6 °C 34635.4 hPa NW 50.7 km/h 50.7 km/h 43 % 0 mm 445.0 W/m2 CLR
14:24 -8.5 °C -15.7 °C 34635.4 hPa NW 65.5 km/h 65.5 km/h 42 % 0 mm 443.0 W/m2 CLR
14:29 -8.2 °C -15.4 °C 34635.4 hPa NNW 71.5 km/h 71.5 km/h 42 % 0 mm 439.0 W/m2 CLR
14:34 -8.5 °C -15.9 °C 34625.2 hPa NNE 59.5 km/h 59.5 km/h 41 % 0 mm 432.0 W/m2 CLR
14:39 -8.5 °C -15.6 °C 34625.2 hPa NNW 53.6 km/h 53.6 km/h 43 % 0 mm 425.0 W/m2 CLR
14:44 -8.5 °C -15.9 °C 34625.2 hPa North 53.6 km/h 53.6 km/h 41 % 0 mm 420.0 W/m2 CLR
14:49 -8.5 °C -15.7 °C 34625.2 hPa North 62.6 km/h 62.6 km/h 42 % 0 mm 413.0 W/m2 CLR
14:54 -8.5 °C -15.7 °C 34625.2 hPa North 38.8 km/h 38.8 km/h 42 % 0 mm 403.0 W/m2 CLR
14:59 -8.5 °C -15.9 °C 34611.7 hPa North 41.7 km/h 41.7 km/h 41 % 0 mm 390.0 W/m2 CLR
15:04 -8.2 °C -16.1 °C 34625.2 hPa North 59.5 km/h 59.5 km/h 39 % 0 mm 385.0 W/m2 CLR
15:09 -8.2 °C -16.2 °C 34611.7 hPa North 59.5 km/h 59.5 km/h 38 % 0 mm 378.0 W/m2 CLR
15:14 -8.2 °C -16.4 °C 34625.2 hPa NNE 56.6 km/h 56.6 km/h 37 % 0 mm 369.0 W/m2 CLR
15:19 -8.2 °C -16.4 °C 34625.2 hPa NW 80.5 km/h 80.5 km/h 37 % 0 mm 359.0 W/m2 CLR
15:24 -8.2 °C -16.7 °C 34611.7 hPa NNW 71.5 km/h 71.5 km/h 36 % 0 mm 348.0 W/m2 CLR
15:29 -8.2 °C -16.7 °C 34611.7 hPa NNW 77.4 km/h 77.4 km/h 36 % 0 mm 339.0 W/m2 CLR
15:34 -8.2 °C -16.9 °C 34611.7 hPa North 68.6 km/h 68.6 km/h 35 % 0 mm 330.0 W/m2 CLR
15:39 -8.2 °C -16.9 °C 34611.7 hPa NNW 59.5 km/h 59.5 km/h 35 % 0 mm 323.0 W/m2 CLR
15:44 -8.2 °C -16.9 °C 34611.7 hPa NNW 56.6 km/h 56.6 km/h 35 % 0 mm 308.0 W/m2 CLR
15:49 -8.2 °C -16.9 °C 34611.7 hPa NW 59.5 km/h 59.5 km/h 35 % 0 mm 306.0 W/m2 CLR
15:54 -8.2 °C -16.4 °C 34611.7 hPa NNE 38.8 km/h 38.8 km/h 37 % 0 mm 271.0 W/m2 CLR
15:59 -8.2 °C -16.4 °C 34611.7 hPa North 50.7 km/h 50.7 km/h 37 % 0 mm 380.0 W/m2 CLR
16:04 -8.2 °C -16.7 °C 34625.2 hPa NNW 44.7 km/h 44.7 km/h 36 % 0 mm 311.0 W/m2 CLR
16:09 -8.2 °C -16.2 °C 34625.2 hPa North 51.8 km/h 51.8 km/h 38 % 0 mm 130.0 W/m2 CLR
16:14 -8.5 °C -16.3 °C 34625.2 hPa NNW 50.7 km/h 50.7 km/h 39 % 0 mm 121.0 W/m2 CLR
16:19 -8.8 °C -16.4 °C 34625.2 hPa NNW 59.5 km/h 59.5 km/h 40 % 0 mm 70.0 W/m2 CLR
16:24 -9.1 °C -16.3 °C 34625.2 hPa NNW 41.7 km/h 41.7 km/h 42 % 0 mm 162.0 W/m2 FEW
16:29 -9.1 °C -16.5 °C 34625.2 hPa NNW 59.5 km/h 59.5 km/h 41 % 0 mm 47.0 W/m2 FEW
16:34 -9.1 °C -16.1 °C 34625.2 hPa NNW 50.7 km/h 50.7 km/h 43 % 0 mm 135.0 W/m2 FEW
16:39 -9.4 °C -16.4 °C 34611.7 hPa NNW 50.7 km/h 50.7 km/h 43 % 0 mm 162.0 W/m2 FEW
16:44 -9.4 °C -16.6 °C 34611.7 hPa NNW 51.8 km/h 51.8 km/h 42 % 0 mm 144.0 W/m2 CLR
16:49 -9.1 °C -16.3 °C 34611.7 hPa NNW 50.7 km/h 50.7 km/h 42 % 0 mm 132.0 W/m2 CLR
16:54 -9.1 °C -16.1 °C 34611.7 hPa North 44.1 km/h 44.1 km/h 43 % 0 mm 120.0 W/m2 CLR
16:59 -9.4 °C -16.6 °C 34611.7 hPa NNW 56.6 km/h 56.6 km/h 42 % 0 mm 51.0 W/m2 CLR
17:04 -9.4 °C -16.4 °C 34625.2 hPa NNW 50.7 km/h 50.7 km/h 43 % 0 mm 93.0 W/m2 FEW
17:10 -9.4 °C -16.4 °C 34625.2 hPa NNW 41.7 km/h 41.7 km/h 43 % 0 mm 54.0 W/m2 CLR
17:15 -9.4 °C -16.4 °C 34625.2 hPa NNW 50.7 km/h 50.7 km/h 43 % 0 mm 49.0 W/m2 BKN
17:20 -9.8 °C -16.5 °C 34625.2 hPa North 59.5 km/h 59.5 km/h 44 % 0 mm 69.0 W/m2 SCT
17:25 -9.8 °C -16.3 °C 34625.2 hPa North 53.6 km/h 53.6 km/h 45 % 0 mm 46.0 W/m2 SCT
17:30 -9.8 °C -16.3 °C 34625.2 hPa NNW 50.7 km/h 50.7 km/h 45 % 0 mm 35.0 W/m2 BKN
17:35 -10.1 °C -16.4 °C 34635.4 hPa NNW 53.6 km/h 53.6 km/h 46 % 0 mm 26.0 W/m2 BKN
17:40 -10.1 °C -16.4 °C 34635.4 hPa NNW 50.7 km/h 50.7 km/h 46 % 0 mm 23.0 W/m2 BKN
17:45 -10.1 °C -16.2 °C 34635.4 hPa North 57 km/h 57 km/h 47 % 0 mm 19.0 W/m2 BKN
17:50 -10.1 °C -16.2 °C 34635.4 hPa NNW 47.6 km/h 47.6 km/h 47 % 0 mm 12.0 W/m2 BKN
17:55 -10.1 °C -16.2 °C 34635.4 hPa North 53.6 km/h 53.6 km/h 47 % 0 mm 9.0 W/m2 BKN
18:00 -10.1 °C -16.1 °C 34645.6 hPa NNW 50.7 km/h 50.7 km/h 48 % 0 mm 5.0 W/m2 OVC
18:05 -10.4 °C -16.3 °C 34645.6 hPa North 54.4 km/h 54.4 km/h 48 % 0 mm 0.0 W/m2 OVC
18:10 -10.4 °C -16.2 °C 34645.6 hPa NNW 50.7 km/h 50.7 km/h 49 % 0 mm 0.0 W/m2 OVC
18:15 -10.4 °C -16.2 °C 34645.6 hPa NNW 36.2 km/h 36.2 km/h 49 % 0 mm 0.0 W/m2 CLR
18:20 -10.4 °C -16.1 °C 34645.6 hPa NNW 35.7 km/h 35.7 km/h 50 % 0 mm 0.0 W/m2 CLR
18:25 -10.4 °C -16.1 °C 34645.6 hPa NW 38.8 km/h 38.8 km/h 50 % 0 mm 0.0 W/m2 CLR
18:30 -10.4 °C -16.1 °C 34645.6 hPa NW 35.7 km/h 35.7 km/h 50 % 0 mm 0.0 W/m2 CLR
18:35 -10.4 °C -16.1 °C 34645.6 hPa NW 41.7 km/h 41.7 km/h 50 % 0 mm 0.0 W/m2 CLR
18:40 -10.4 °C -16.1 °C 34645.6 hPa NW 35.7 km/h 35.7 km/h 50 % 0 mm 0.0 W/m2 CLR
18:45 -10.1 °C -15.8 °C 34645.6 hPa NNW 54.4 km/h 54.4 km/h 50 % 0 mm 0.0 W/m2 CLR
18:50 -10.1 °C -15.9 °C 34645.6 hPa NNW 38.8 km/h 38.8 km/h 49 % 0 mm 0.0 W/m2 CLR
18:55 -10.1 °C -15.9 °C 34645.6 hPa NW 44.7 km/h 44.7 km/h 49 % 0 mm 0.0 W/m2 CLR
19:00 -10.1 °C -15.9 °C 34645.6 hPa NNW 50.7 km/h 50.7 km/h 49 % 0 mm 0.0 W/m2 CLR
19:05 -10.1 °C -15.8 °C 34645.6 hPa NW 32.8 km/h 32.8 km/h 50 % 0 mm 0.0 W/m2 CLR
19:10 -10.4 °C -16.1 °C 34645.6 hPa NW 47.6 km/h 47.6 km/h 50 % 0 mm 0.0 W/m2 CLR
19:15 -10.4 °C -15.9 °C 34659.1 hPa NW 35.7 km/h 35.7 km/h 51 % 0 mm 0.0 W/m2 CLR
19:20 -10.4 °C -15.9 °C 34659.1 hPa NW 53.6 km/h 53.6 km/h 51 % 0 mm 0.0 W/m2 CLR
19:25 -10.4 °C -15.9 °C 34659.1 hPa NNW 32.8 km/h 32.8 km/h 51 % 0 mm 0.0 W/m2 CLR
19:30 -10.4 °C -15.7 °C 34645.6 hPa NNW 38.8 km/h 38.8 km/h 52 % 0 mm 0.0 W/m2 CLR
19:35 -10.4 °C -15.7 °C 34645.6 hPa NW 41.7 km/h 41.7 km/h 52 % 0 mm 0.0 W/m2 CLR
19:40 -10.4 °C -15.7 °C 34645.6 hPa NW 41.7 km/h 41.7 km/h 52 % 0 mm 0.0 W/m2 CLR
19:45 -10.4 °C -15.6 °C 34645.6 hPa NNW 50.7 km/h 50.7 km/h 53 % 0 mm 0.0 W/m2 CLR
19:50 -10.4 °C -15.6 °C 34645.6 hPa NW 51.8 km/h 51.8 km/h 53 % 0 mm 0.0 W/m2 CLR
19:55 -10.4 °C -15.6 °C 34645.6 hPa NW 50.7 km/h 50.7 km/h 53 % 0 mm 0.0 W/m2 CLR
20:00 -10.4 °C -15.6 °C 34659.1 hPa NW 51.8 km/h 51.8 km/h 53 % 0 mm 0.0 W/m2 CLR
20:05 -10.4 °C -15.6 °C 34659.1 hPa NW 44.7 km/h 44.7 km/h 53 % 0 mm 0.0 W/m2 CLR
20:06 -10.4 °C -15.6 °C 34659.1 hPa NNW 41.7 km/h 41.7 km/h 53 % 0 mm 0.0 W/m2 CLR
20:11 -10.4 °C -15.4 °C 34659.1 hPa NNW 56.6 km/h 56.6 km/h 54 % 0 mm 0.0 W/m2 CLR
20:16 -10.7 °C -15.7 °C 34659.1 hPa NW 41.7 km/h 41.7 km/h 54 % 0 mm 0.0 W/m2 CLR
20:21 -10.7 °C -15.7 °C 34659.1 hPa NNW 35.7 km/h 35.7 km/h 54 % 0 mm 0.0 W/m2 CLR
20:26 -10.7 °C -15.7 °C 34659.1 hPa NNW 53.6 km/h 53.6 km/h 54 % 0 mm 0.0 W/m2 CLR
20:31 -10.7 °C -15.9 °C 34659.1 hPa NW 68.6 km/h 68.6 km/h 53 % 0 mm 0.0 W/m2 CLR
20:36 -10.4 °C -15.6 °C 34659.1 hPa NW 38.8 km/h 38.8 km/h 53 % 0 mm 0.0 W/m2 CLR
20:41 -10.4 °C -15.6 °C 34659.1 hPa NW 50.7 km/h 50.7 km/h 53 % 0 mm 0.0 W/m2 CLR
20:46 -10.7 °C -15.9 °C 34659.1 hPa NW 41.7 km/h 41.7 km/h 53 % 0 mm 0.0 W/m2 CLR
20:51 -10.7 °C -15.9 °C 34659.1 hPa North 59.5 km/h 59.5 km/h 53 % 0 mm 0.0 W/m2 CLR
20:56 -10.4 °C -15.6 °C 34659.1 hPa NW 38.8 km/h 38.8 km/h 53 % 0 mm 0.0 W/m2 CLR
21:01 -10.4 °C -15.6 °C 34659.1 hPa NNW 53.6 km/h 53.6 km/h 53 % 0 mm 0.0 W/m2 CLR
21:06 -10.4 °C -15.7 °C 34659.1 hPa NNW 50.7 km/h 50.7 km/h 52 % 0 mm 0.0 W/m2 CLR
21:11 -10.4 °C -15.7 °C 34659.1 hPa NW 50.7 km/h 50.7 km/h 52 % 0 mm 0.0 W/m2 CLR
21:16 -10.4 °C -15.7 °C 34659.1 hPa North 47.6 km/h 47.6 km/h 52 % 0 mm 0.0 W/m2 CLR
21:21 -10.4 °C -15.6 °C 34659.1 hPa NW 59.5 km/h 59.5 km/h 53 % 0 mm 0.0 W/m2 CLR
21:26 -10.4 °C -15.6 °C 34669.3 hPa NW 29.8 km/h 29.8 km/h 53 % 0 mm 0.0 W/m2 CLR
21:31 -10.4 °C -15.6 °C 34669.3 hPa NNW 53.6 km/h 53.6 km/h 53 % 0 mm 0.0 W/m2 CLR
21:36 -10.4 °C -15.6 °C 34669.3 hPa WNW 50.7 km/h 50.7 km/h 53 % 0 mm 0.0 W/m2 CLR
21:41 -10.4 °C -15.6 °C 34669.3 hPa WNW 56.6 km/h 56.6 km/h 53 % 0 mm 0.0 W/m2 CLR
21:46 -10.4 °C -15.6 °C 34669.3 hPa NNW 44.7 km/h 44.7 km/h 53 % 0 mm 0.0 W/m2 CLR
21:51 -10.4 °C -15.4 °C 34669.3 hPa NW 54.4 km/h 54.4 km/h 54 % 0 mm 0.0 W/m2 CLR
21:56 -10.4 °C -15.4 °C 34682.8 hPa NW 53.6 km/h 53.6 km/h 54 % 0 mm 0.0 W/m2 CLR
22:01 -10.4 °C -15.4 °C 34682.8 hPa NNW 50.7 km/h 50.7 km/h 54 % 0 mm 0.0 W/m2 CLR
22:06 -10.4 °C -15.4 °C 34682.8 hPa NNW 68.6 km/h 68.6 km/h 54 % 0 mm 0.0 W/m2 CLR
22:11 -10.4 °C -15.3 °C 34693 hPa NW 77.7 km/h 77.7 km/h 55 % 0 mm 0.0 W/m2 CLR
22:16 -10.1 °C -15.2 °C 34682.8 hPa NNW 71.5 km/h 71.5 km/h 54 % 0 mm 0.0 W/m2 CLR
22:21 -10.1 °C -15.2 °C 34693 hPa NNW 56.6 km/h 56.6 km/h 54 % 0 mm 0.0 W/m2 CLR
22:26 -10.1 °C -15 °C 34693 hPa WNW 54.4 km/h 54.4 km/h 55 % 0 mm 0.0 W/m2 CLR
22:31 -10.1 °C -15 °C 34693 hPa NNW 62.6 km/h 62.6 km/h 55 % 0 mm 0.0 W/m2 CLR
22:36 -10.1 °C -15 °C 34703.1 hPa NNW 56.6 km/h 56.6 km/h 55 % 0 mm 0.0 W/m2 CLR
22:41 -10.1 °C -15 °C 34693 hPa NNW 50.7 km/h 50.7 km/h 55 % 0 mm 0.0 W/m2 CLR
22:46 -10.1 °C -15 °C 34693 hPa NNW 50.7 km/h 50.7 km/h 55 % 0 mm 0.0 W/m2 CLR
22:51 -10.1 °C -15 °C 34693 hPa NW 53.6 km/h 53.6 km/h 55 % 0 mm 0.0 W/m2 CLR
22:56 -10.1 °C -15 °C 34703.1 hPa NW 50.7 km/h 50.7 km/h 55 % 0 mm 0.0 W/m2 CLR
23:01 -10.1 °C -14.9 °C 34703.1 hPa NNW 53.6 km/h 53.6 km/h 56 % 0 mm 0.0 W/m2 CLR
23:06 -10.1 °C -14.9 °C 34703.1 hPa NW 50.7 km/h 50.7 km/h 56 % 0 mm 0.0 W/m2 CLR
23:11 -10.1 °C -14.9 °C 34703.1 hPa NNW 50.7 km/h 50.7 km/h 56 % 0 mm 0.0 W/m2 CLR
23:16 -10.1 °C -14.7 °C 34703.1 hPa WNW 47.6 km/h 47.6 km/h 57 % 0 mm 0.0 W/m2 CLR
23:21 -10.1 °C -14.7 °C 34703.1 hPa NNW 35.7 km/h 35.7 km/h 57 % 0 mm 0.0 W/m2 CLR
23:26 -10.1 °C -14.7 °C 34703.1 hPa NNW 46.7 km/h 46.7 km/h 57 % 0 mm 0.0 W/m2 CLR
23:31 -10.1 °C -14.7 °C 34703.1 hPa NNW 38.8 km/h 38.8 km/h 57 % 0 mm 0.0 W/m2 CLR
23:36 -10.1 °C -14.7 °C 34703.1 hPa NNW 29.8 km/h 29.8 km/h 57 % 0 mm 0.0 W/m2 CLR
23:41 -10.1 °C -14.6 °C 34703.1 hPa NW 32.8 km/h 32.8 km/h 58 % 0 mm 0.0 W/m2 CLR
23:46 -10.1 °C -14.6 °C 34703.1 hPa NNW 56.6 km/h 56.6 km/h 58 % 0 mm 0.0 W/m2 CLR
23:51 -10.1 °C -14.6 °C 34703.1 hPa NNW 44.1 km/h 44.1 km/h 58 % 0 mm 0.0 W/m2 CLR
23:56 -10.1 °C -14.6 °C 34703.1 hPa NW 28.5 km/h 28.5 km/h 58 % 0 mm 0.0 W/m2 CLR
Lo Temps de Massalio
Compliments of Weather Underground - 1.25 mb